createdAt,value
2023-05-06T00:00:27.000Z,3.5
2023-05-06T00:01:43.000Z,2.9
2023-05-06T00:02:59.000Z,2.8
2023-05-06T00:04:15.000Z,3.4
2023-05-06T00:05:31.000Z,3.2
2023-05-06T00:06:48.000Z,4
2023-05-06T00:08:04.000Z,3.5
2023-05-06T00:09:20.000Z,3.7
2023-05-06T00:10:37.000Z,3.6
2023-05-06T00:11:53.000Z,3.3
2023-05-06T00:13:09.000Z,3.3
2023-05-06T00:14:25.000Z,3.2
2023-05-06T00:15:42.000Z,3.6
2023-05-06T00:16:58.000Z,3.3
2023-05-06T00:18:14.000Z,3.1
2023-05-06T00:19:30.294Z,3.4
2023-05-06T00:20:46.000Z,3.2
2023-05-06T00:22:02.000Z,3.5
2023-05-06T00:23:18.000Z,4
2023-05-06T00:24:35.432Z,3.6
2023-05-06T00:25:51.000Z,3.3
2023-05-06T00:27:07.000Z,3.7
2023-05-06T00:28:24.000Z,4.2
2023-05-06T00:29:40.000Z,3.8
2023-05-06T00:30:56.000Z,4.1
2023-05-06T00:32:12.000Z,3.6
2023-05-06T00:33:29.000Z,3.4
2023-05-06T00:34:45.000Z,3.2
2023-05-06T00:36:00.000Z,4.1
2023-05-06T00:37:16.000Z,2.9
2023-05-06T00:38:31.000Z,3.4
2023-05-06T00:39:46.000Z,3.5
2023-05-06T00:41:02.000Z,3.9
2023-05-06T00:42:18.000Z,3.4
2023-05-06T00:43:34.000Z,3.1
2023-05-06T00:44:50.000Z,2.9
2023-05-06T00:46:07.000Z,3
2023-05-06T00:47:23.000Z,3.2
2023-05-06T00:48:39.000Z,3.8
2023-05-06T00:49:56.000Z,3.4
2023-05-06T00:51:12.000Z,3.4
2023-05-06T00:52:28.000Z,3.5
2023-05-06T00:53:44.000Z,3.1
2023-05-06T00:55:01.000Z,4.3
2023-05-06T00:56:17.000Z,3.7
2023-05-06T00:57:33.016Z,3.4
2023-05-06T00:58:49.000Z,3.3
2023-05-06T01:00:05.000Z,2.9
2023-05-06T01:01:21.000Z,3.1
2023-05-06T01:02:37.000Z,3.2
2023-05-06T01:03:54.000Z,3.3
2023-05-06T01:05:10.000Z,3.5
2023-05-06T01:06:25.000Z,3.4
2023-05-06T01:07:41.000Z,3.3
2023-05-06T01:08:57.000Z,3.4
2023-05-06T01:10:12.000Z,3.8
2023-05-06T01:11:28.000Z,3.7
2023-05-06T01:12:44.000Z,3.4
2023-05-06T01:14:00.000Z,3.8
2023-05-06T01:15:16.000Z,3.1
2023-05-06T01:16:33.000Z,3.1
2023-05-06T01:17:49.000Z,3.5
2023-05-06T01:19:05.000Z,3.5
2023-05-06T01:20:22.000Z,3.1
2023-05-06T01:21:38.000Z,3
2023-05-06T01:22:54.000Z,3.1
2023-05-06T01:24:10.000Z,3.3
2023-05-06T01:25:27.000Z,3.5
2023-05-06T01:26:43.000Z,3.9
2023-05-06T01:27:58.000Z,3.7
2023-05-06T01:29:15.000Z,3.4
2023-05-06T01:30:31.000Z,3.4
2023-05-06T01:31:47.000Z,3.4
2023-05-06T01:33:03.000Z,3.5
2023-05-06T01:34:20.000Z,3.2
2023-05-06T01:35:36.730Z,3.2
2023-05-06T01:36:52.000Z,3.4
2023-05-06T01:38:09.000Z,3.2
2023-05-06T01:39:25.000Z,3.6
2023-05-06T01:40:41.000Z,3.4
2023-05-06T01:41:57.000Z,3.1
2023-05-06T01:43:14.000Z,3.3
2023-05-06T01:44:29.000Z,3.8
2023-05-06T01:45:45.000Z,3.7
2023-05-06T01:47:02.339Z,3.5
2023-05-06T01:48:18.615Z,3.5
2023-05-06T01:49:34.000Z,3.3
2023-05-06T01:50:50.000Z,3.6
2023-05-06T01:52:07.000Z,3.4
2023-05-06T01:53:23.000Z,3.5
2023-05-06T01:54:39.000Z,3.2
2023-05-06T01:55:56.000Z,3.3
2023-05-06T01:57:12.000Z,3.6
2023-05-06T01:58:28.000Z,3.1
2023-05-06T01:59:44.000Z,3.2
2023-05-06T02:01:00.000Z,3.8
2023-05-06T02:02:16.000Z,4.1
2023-05-06T02:03:32.000Z,4
2023-05-06T02:04:49.000Z,3.8
2023-05-06T02:06:05.000Z,4.2
2023-05-06T02:07:21.944Z,4.2
2023-05-06T02:08:37.000Z,4.1
2023-05-06T02:09:54.000Z,3.9
2023-05-06T02:11:09.000Z,4.2
2023-05-06T02:12:24.000Z,3.8
2023-05-06T02:13:41.403Z,4.4
2023-05-06T02:14:57.000Z,4.4
2023-05-06T02:16:13.034Z,3.9
2023-05-06T02:17:28.000Z,4.4
2023-05-06T02:18:44.000Z,4.5
2023-05-06T02:20:00.000Z,4.4
2023-05-06T02:21:16.000Z,4
2023-05-06T02:22:33.000Z,4.2
2023-05-06T02:23:49.000Z,4.6
2023-05-06T02:25:05.000Z,4.6
2023-05-06T02:26:22.336Z,5.1
2023-05-06T02:27:38.000Z,5.1
2023-05-06T02:28:54.000Z,5.3
2023-05-06T02:30:11.188Z,4.9
2023-05-06T02:31:27.000Z,4.5
2023-05-06T02:32:42.000Z,4.6
2023-05-06T02:33:58.000Z,5.5
2023-05-06T02:35:15.000Z,5.5
2023-05-06T02:36:31.000Z,5.3
2023-05-06T02:37:47.000Z,4.2
2023-05-06T02:39:03.000Z,4.4
2023-05-06T02:40:20.000Z,4.3
2023-05-06T02:41:36.000Z,5
2023-05-06T02:42:52.000Z,4.6
2023-05-06T02:44:09.000Z,5
2023-05-06T02:45:25.000Z,4.4
2023-05-06T02:46:41.000Z,4.5
2023-05-06T02:47:57.000Z,4.5
2023-05-06T02:49:13.000Z,4.4
2023-05-06T02:50:29.000Z,4.3
2023-05-06T02:51:45.000Z,4.7
2023-05-06T02:53:02.000Z,4.1
2023-05-06T02:54:18.000Z,4.4
2023-05-06T02:55:34.000Z,4.2
2023-05-06T02:56:51.000Z,4.9
2023-05-06T02:58:07.565Z,5
2023-05-06T02:59:23.000Z,5
2023-05-06T03:00:39.000Z,4.7
2023-05-06T03:01:56.000Z,4.7
2023-05-06T03:03:12.715Z,3.9
2023-05-06T03:04:28.995Z,4.2
2023-05-06T03:05:44.000Z,4
2023-05-06T03:07:00.000Z,4.5
2023-05-06T03:08:16.000Z,4.8
2023-05-06T03:09:32.000Z,5
2023-05-06T03:10:49.000Z,5.1
2023-05-06T03:12:05.000Z,5.9
2023-05-06T03:13:21.000Z,5.7
2023-05-06T03:14:38.000Z,5.2
2023-05-06T03:15:54.000Z,5.3
2023-05-06T03:17:10.000Z,5.5
2023-05-06T03:18:26.000Z,4.9
2023-05-06T03:19:43.000Z,5.3
2023-05-06T03:20:59.000Z,5.2
2023-05-06T03:22:14.000Z,5.6
2023-05-06T03:23:30.000Z,6
2023-05-06T03:24:47.000Z,5.6
2023-05-06T03:26:03.000Z,5.7
2023-05-06T03:27:18.000Z,5
2023-05-06T03:28:33.000Z,5.1
2023-05-06T03:29:50.000Z,4.7
2023-05-06T03:31:06.000Z,5
2023-05-06T03:32:21.000Z,5.9
2023-05-06T03:33:36.000Z,5.6
2023-05-06T03:34:53.000Z,5.7
2023-05-06T03:36:09.000Z,6
2023-05-06T03:37:25.000Z,6.5
2023-05-06T03:38:41.000Z,5.3
2023-05-06T03:39:58.000Z,5.7
2023-05-06T03:41:14.000Z,4.9
2023-05-06T03:42:30.762Z,5.6
2023-05-06T03:43:46.000Z,5.3
2023-05-06T03:45:02.000Z,5
2023-05-06T03:46:19.000Z,5.5
2023-05-06T03:47:35.000Z,5.4
2023-05-06T03:48:51.000Z,5.3
2023-05-06T03:50:06.000Z,5.4
2023-05-06T03:51:23.000Z,5.2
2023-05-06T03:52:39.000Z,4.8
2023-05-06T03:53:55.896Z,5.8
2023-05-06T03:55:12.129Z,4.6
2023-05-06T03:56:28.000Z,4.1
2023-05-06T03:57:44.000Z,3.7
2023-05-06T03:59:00.000Z,4.8
2023-05-06T04:00:16.000Z,5.1
2023-05-06T04:01:33.000Z,5.5
2023-05-06T04:02:49.000Z,4.2
2023-05-06T04:04:05.000Z,5.5
2023-05-06T04:05:21.000Z,3.3
2023-05-06T04:06:36.000Z,4.3
2023-05-06T04:07:53.000Z,4.2
2023-05-06T04:09:09.000Z,4.3
2023-05-06T04:10:25.000Z,4.1
2023-05-06T04:11:41.000Z,5.9
2023-05-06T04:12:58.000Z,3.9
2023-05-06T04:14:14.000Z,4.6
2023-05-06T04:15:30.000Z,3.3
2023-05-06T04:16:46.000Z,3.5
2023-05-06T04:18:03.000Z,3.6
2023-05-06T04:19:19.000Z,3.7
2023-05-06T04:20:35.000Z,2.3
2023-05-06T04:21:51.000Z,3.2
2023-05-06T04:23:07.000Z,3.6
2023-05-06T04:24:23.000Z,2.7
2023-05-06T04:25:39.000Z,3.3
2023-05-06T04:26:55.000Z,4.4
2023-05-06T04:28:11.000Z,4.8
2023-05-06T04:29:28.475Z,3.9
2023-05-06T04:30:44.000Z,4.5
2023-05-06T04:32:00.000Z,4.1
2023-05-06T04:33:16.000Z,4.1
2023-05-06T04:34:33.000Z,3.7
2023-05-06T04:35:49.000Z,4
2023-05-06T04:37:05.000Z,3.7
2023-05-06T04:38:21.000Z,4.2
2023-05-06T04:39:37.000Z,4
2023-05-06T04:40:53.000Z,3.2
2023-05-06T04:42:09.000Z,4.2
2023-05-06T04:43:25.000Z,4.5
2023-05-06T04:44:42.000Z,3.5
2023-05-06T04:45:58.490Z,4.2
2023-05-06T04:47:14.000Z,3.6
2023-05-06T04:48:30.000Z,4.5
2023-05-06T04:49:46.000Z,3.7
2023-05-06T04:51:03.000Z,3.9
2023-05-06T04:52:19.000Z,4.7
2023-05-06T04:53:35.000Z,5
2023-05-06T04:54:51.000Z,3.5
2023-05-06T04:56:07.000Z,4.2
2023-05-06T04:57:23.000Z,4.5
2023-05-06T04:58:39.000Z,4
2023-05-06T04:59:55.000Z,4
2023-05-06T05:01:12.322Z,5.3
2023-05-06T05:02:28.000Z,4.2
2023-05-06T05:03:44.000Z,4.7
2023-05-06T05:05:00.000Z,4.1
2023-05-06T05:06:17.000Z,4
2023-05-06T05:07:33.000Z,4
2023-05-06T05:08:49.000Z,4.5
2023-05-06T05:10:05.000Z,3.7
2023-05-06T05:11:22.189Z,4.1
2023-05-06T05:12:37.446Z,4.1
2023-05-06T05:13:53.000Z,4.3
2023-05-06T05:15:09.000Z,4.2
2023-05-06T05:16:25.000Z,4.4
2023-05-06T05:17:42.000Z,3.5
2023-05-06T05:18:58.000Z,4.4
2023-05-06T05:20:14.822Z,4.1
2023-05-06T05:21:30.000Z,4.5
2023-05-06T05:22:47.000Z,4.5
2023-05-06T05:24:03.548Z,4.1
2023-05-06T05:25:19.758Z,4.1
2023-05-06T05:26:35.000Z,4
2023-05-06T05:27:51.000Z,4.4
2023-05-06T05:29:07.000Z,4.4
2023-05-06T05:30:23.000Z,4.2
2023-05-06T05:31:39.000Z,4.5
2023-05-06T05:32:56.191Z,4.5
2023-05-06T05:34:12.000Z,4.4
2023-05-06T05:35:28.657Z,3.8
2023-05-06T05:38:00.000Z,3.7
2023-05-06T05:39:17.000Z,3.2
2023-05-06T05:40:33.000Z,3.4
2023-05-06T05:41:49.000Z,3.4
2023-05-06T05:43:05.000Z,3.9
2023-05-06T05:44:22.000Z,3
2023-05-06T05:45:37.000Z,3.7
2023-05-06T05:46:53.000Z,4.2
2023-05-06T05:48:09.000Z,4.3
2023-05-06T05:49:25.000Z,5.7
2023-05-06T05:50:42.000Z,4.5
2023-05-06T05:51:58.000Z,4.6
2023-05-06T05:53:14.000Z,4.9
2023-05-06T05:54:30.000Z,4.7
2023-05-06T05:55:47.000Z,5.2
2023-05-06T05:57:02.000Z,4.3
2023-05-06T05:58:17.000Z,4.6
2023-05-06T05:59:32.000Z,5
2023-05-06T06:00:48.000Z,4.4
2023-05-06T06:02:04.000Z,4.8
2023-05-06T06:03:20.904Z,4.5
2023-05-06T06:04:36.000Z,4.5
2023-05-06T06:05:53.000Z,4.5
2023-05-06T06:07:09.000Z,4.7
2023-05-06T06:08:25.000Z,4.6
2023-05-06T06:09:41.000Z,5.5
2023-05-06T06:10:58.000Z,5.5
2023-05-06T06:12:14.000Z,6.3
2023-05-06T06:13:30.000Z,5.8
2023-05-06T06:14:46.990Z,5.4
2023-05-06T06:16:02.000Z,6.8
2023-05-06T06:17:18.000Z,5.2
2023-05-06T06:18:34.000Z,4.6
2023-05-06T06:19:50.000Z,6
2023-05-06T06:21:06.000Z,5.1
2023-05-06T06:22:23.000Z,5.7
2023-05-06T06:23:39.621Z,6.4
2023-05-06T06:24:55.000Z,5.5
2023-05-06T06:26:11.000Z,5.5
2023-05-06T06:27:28.340Z,5.7
2023-05-06T06:28:44.000Z,5.8
2023-05-06T06:30:00.000Z,6.3
2023-05-06T06:31:16.000Z,7.8
2023-05-06T06:32:33.000Z,6.2
2023-05-06T06:33:48.000Z,6.4
2023-05-06T06:35:04.000Z,6.6
2023-05-06T06:36:20.000Z,6.7
2023-05-06T06:37:36.000Z,6.2
2023-05-06T06:38:53.000Z,6.1
2023-05-06T06:40:09.000Z,7.3
2023-05-06T06:41:25.000Z,6.1
2023-05-06T06:42:41.000Z,6
2023-05-06T06:43:58.000Z,6.2
2023-05-06T06:45:14.000Z,5.8
2023-05-06T06:46:30.000Z,6.2
2023-05-06T06:47:45.000Z,6.5
2023-05-06T06:49:02.000Z,5.8
2023-05-06T06:51:34.000Z,6.3
2023-05-06T06:54:07.000Z,10.5
2023-05-06T06:55:23.000Z,11.1
2023-05-06T06:56:39.000Z,9.2
2023-05-06T06:57:55.000Z,9.2
2023-05-06T06:59:11.000Z,9.5
2023-05-06T07:00:28.443Z,10.6
2023-05-06T07:01:44.000Z,9.9
2023-05-06T07:03:00.000Z,10.1
2023-05-06T07:04:15.000Z,9.4
2023-05-06T07:05:32.000Z,7.8
2023-05-06T07:06:48.000Z,8.4
2023-05-06T07:08:04.000Z,8.4
2023-05-06T07:09:20.000Z,7.1
2023-05-06T07:10:37.000Z,7.9
2023-05-06T07:11:53.601Z,6.6
2023-05-06T07:13:09.000Z,7.1
2023-05-06T07:14:25.000Z,7.6
2023-05-06T07:15:41.000Z,9.3
2023-05-06T07:16:58.000Z,7.3
2023-05-06T07:18:14.000Z,8.1
2023-05-06T07:19:30.000Z,8.1
2023-05-06T07:20:45.000Z,8.5
2023-05-06T07:22:02.000Z,8.3
2023-05-06T07:23:18.000Z,8.8
2023-05-06T07:24:34.000Z,10.2
2023-05-06T07:25:50.000Z,9.2
2023-05-06T07:27:07.366Z,9.1
2023-05-06T07:28:23.000Z,10
2023-05-06T07:29:39.851Z,9.7
2023-05-06T07:30:55.000Z,10.6
2023-05-06T07:32:12.000Z,8.9
2023-05-06T07:33:28.000Z,9.7
2023-05-06T07:34:44.756Z,9.7
2023-05-06T07:36:00.000Z,10.2
2023-05-06T07:37:16.000Z,9.5
2023-05-06T07:38:32.000Z,9.3
2023-05-06T07:39:48.715Z,9.5
2023-05-06T07:41:04.000Z,9.5
2023-05-06T07:42:21.196Z,8.8
2023-05-06T07:44:53.000Z,8.6
2023-05-06T07:46:09.000Z,9.5
2023-05-06T07:47:25.000Z,8.9
2023-05-06T07:48:42.000Z,9.6
2023-05-06T07:49:58.000Z,8.3
2023-05-06T07:51:14.000Z,8.5
2023-05-06T07:52:30.000Z,8.5
2023-05-06T07:53:46.000Z,8.3
2023-05-06T07:55:02.000Z,8.5
2023-05-06T07:57:34.000Z,7.4
2023-05-06T07:58:50.000Z,7.9
2023-05-06T08:00:07.000Z,8.7
2023-05-06T08:01:23.000Z,7.7
2023-05-06T08:02:39.000Z,7.5
2023-05-06T08:03:55.000Z,7.1
2023-05-06T08:05:12.000Z,7.8
2023-05-06T08:06:28.000Z,8.5
2023-05-06T08:07:44.000Z,7.9
2023-05-06T08:09:00.000Z,8.5
2023-05-06T08:10:16.000Z,7.9
2023-05-06T08:11:32.000Z,8.3
2023-05-06T08:12:48.806Z,7.5
2023-05-06T08:14:04.000Z,6.9
2023-05-06T08:15:21.281Z,7.1
2023-05-06T08:16:37.000Z,6.2
2023-05-06T08:17:53.000Z,7.8
2023-05-06T08:19:09.000Z,8.4
2023-05-06T08:20:25.000Z,7.9
2023-05-06T08:21:42.446Z,7.1
2023-05-06T08:22:58.000Z,7.8
2023-05-06T08:24:14.000Z,7.1
2023-05-06T08:25:30.000Z,7.6
2023-05-06T08:26:46.385Z,7
2023-05-06T08:28:02.000Z,8
2023-05-06T08:29:18.000Z,8
2023-05-06T08:30:34.000Z,7.2
2023-05-06T08:31:51.000Z,6.5
2023-05-06T08:33:07.000Z,7.2
2023-05-06T08:34:23.790Z,7
2023-05-06T08:35:39.000Z,7.3
2023-05-06T08:36:55.000Z,7.1
2023-05-06T08:38:12.000Z,7.1
2023-05-06T08:39:28.000Z,8.3
2023-05-06T08:40:44.000Z,8.2
2023-05-06T08:42:00.000Z,7.8
2023-05-06T08:43:16.000Z,8.5
2023-05-06T08:44:32.000Z,8.5
2023-05-06T08:45:48.000Z,9.9
2023-05-06T08:47:04.000Z,8.2
2023-05-06T08:48:21.000Z,7.9
2023-05-06T08:49:37.000Z,8
2023-05-06T08:50:53.000Z,8.4
2023-05-06T08:52:09.000Z,8.2
2023-05-06T08:53:26.000Z,8.5
2023-05-06T08:54:42.530Z,7.8
2023-05-06T08:55:58.000Z,8.2
2023-05-06T08:57:14.000Z,8
2023-05-06T08:58:30.000Z,8.5
2023-05-06T08:59:46.000Z,8.9
2023-05-06T09:01:02.000Z,8.4
2023-05-06T09:02:18.965Z,8.6
2023-05-06T09:03:34.000Z,9.1
2023-05-06T09:04:51.000Z,7.6
2023-05-06T09:06:07.000Z,8.3
2023-05-06T09:07:23.000Z,8.8
2023-05-06T09:08:39.000Z,8.4
2023-05-06T09:09:56.000Z,9.5
2023-05-06T09:11:12.000Z,9.1
2023-05-06T09:12:28.000Z,8.8
2023-05-06T09:13:44.000Z,8.6
2023-05-06T09:15:01.000Z,8.4
2023-05-06T09:16:16.000Z,9.3
2023-05-06T09:17:32.000Z,7.9
2023-05-06T09:18:48.000Z,7.7
2023-05-06T09:20:04.000Z,8.6
2023-05-06T09:21:21.473Z,8.7
2023-05-06T09:22:37.000Z,8.4
2023-05-06T09:23:53.000Z,8.1
2023-05-06T09:26:26.000Z,7.9
2023-05-06T09:27:42.000Z,8.5
2023-05-06T09:28:58.000Z,9.1
2023-05-06T09:30:14.000Z,9.6
2023-05-06T09:31:31.000Z,9.3
2023-05-06T09:32:46.587Z,8.3
2023-05-06T09:34:02.000Z,8.5
2023-05-06T09:35:18.000Z,8.7
2023-05-06T09:36:35.000Z,8.1
2023-05-06T09:40:23.000Z,8.6
2023-05-06T09:41:38.000Z,8.4
2023-05-06T09:42:54.000Z,7.3
2023-05-06T09:44:10.000Z,8.2
2023-05-06T09:45:26.000Z,8.6
2023-05-06T09:46:42.000Z,8.1
2023-05-06T09:47:59.000Z,9.3
2023-05-06T09:49:15.000Z,8.8
2023-05-06T09:50:31.000Z,8.1
2023-05-06T09:51:47.000Z,9.4
2023-05-06T09:53:04.000Z,9
2023-05-06T09:54:20.000Z,8.5
2023-05-06T09:55:35.000Z,9.2
2023-05-06T09:56:50.000Z,9.2
2023-05-06T09:58:07.000Z,8.3
2023-05-06T09:59:23.000Z,9
2023-05-06T10:00:39.000Z,8.4
2023-05-06T10:01:55.000Z,8.4
2023-05-06T10:04:28.000Z,8.8
2023-05-06T10:05:44.000Z,8.4
2023-05-06T10:07:00.945Z,8.5
2023-05-06T10:08:16.000Z,8.5
2023-05-06T10:09:33.434Z,9.1
2023-05-06T10:10:49.000Z,8.2
2023-05-06T10:12:05.000Z,8.5
2023-05-06T10:13:20.000Z,9.4
2023-05-06T10:14:37.361Z,8.7
2023-05-06T10:15:53.000Z,11.2
2023-05-06T10:17:09.000Z,7.8
2023-05-06T10:18:25.000Z,7.8
2023-05-06T10:19:42.000Z,7.9
2023-05-06T10:20:58.000Z,8.7
2023-05-06T10:22:14.000Z,8.4
2023-05-06T10:23:30.000Z,7.9
2023-05-06T10:24:46.000Z,8.2
2023-05-06T10:26:03.000Z,8.3
2023-05-06T10:27:19.000Z,8.2
2023-05-06T10:28:35.953Z,7.9
2023-05-06T10:29:50.000Z,8.2
2023-05-06T10:31:07.000Z,8.3
2023-05-06T10:32:23.000Z,9.7
2023-05-06T10:33:39.000Z,8.6
2023-05-06T10:34:55.000Z,9.2
2023-05-06T10:36:12.000Z,8.4
2023-05-06T10:37:28.000Z,7.9
2023-05-06T10:38:44.000Z,7.4
2023-05-06T10:40:00.000Z,7.8
2023-05-06T10:41:17.296Z,9
2023-05-06T10:42:33.000Z,9.3
2023-05-06T10:43:49.743Z,8.9
2023-05-06T10:45:05.000Z,8.6
2023-05-06T10:46:20.000Z,9.1
2023-05-06T10:47:37.000Z,8.5
2023-05-06T10:48:53.000Z,8.7
2023-05-06T10:50:09.000Z,7.9
2023-05-06T10:51:25.000Z,8.3
2023-05-06T10:52:42.000Z,8.9
2023-05-06T10:53:58.000Z,8.2
2023-05-06T10:55:14.000Z,8.6
2023-05-06T10:56:30.000Z,9.7
2023-05-06T10:57:47.000Z,9.5
2023-05-06T10:59:03.564Z,7.5
2023-05-06T11:00:19.773Z,8.8
2023-05-06T11:01:35.000Z,7.6
2023-05-06T11:02:51.000Z,7.7
2023-05-06T11:04:07.000Z,7.4
2023-05-06T11:05:23.000Z,7.7
2023-05-06T11:06:39.000Z,7.8
2023-05-06T11:07:55.000Z,8.2
2023-05-06T11:09:12.000Z,12.3
2023-05-06T11:10:28.000Z,7.6
2023-05-06T11:11:44.000Z,8.6
2023-05-06T11:13:00.000Z,7.9
2023-05-06T11:14:17.000Z,6.8
2023-05-06T11:15:33.613Z,6
2023-05-06T11:16:49.853Z,6.1
2023-05-06T11:18:05.000Z,7
2023-05-06T11:20:37.000Z,6.5
2023-05-06T11:21:53.000Z,6.7
2023-05-06T11:23:09.000Z,5.6
2023-05-06T11:24:25.000Z,5.7
2023-05-06T11:25:42.497Z,6.1
2023-05-06T11:26:58.000Z,6.7
2023-05-06T11:28:14.000Z,7.5
2023-05-06T11:29:31.198Z,7
2023-05-06T11:30:47.000Z,7.2
2023-05-06T11:32:03.666Z,6.7
2023-05-06T11:33:19.000Z,7.4
2023-05-06T11:34:36.118Z,6.6
2023-05-06T11:37:07.000Z,6.2
2023-05-06T11:38:23.000Z,5.9
2023-05-06T11:39:39.000Z,7.1
2023-05-06T11:40:56.000Z,7.2
2023-05-06T11:42:12.000Z,6.9
2023-05-06T11:43:28.000Z,7.2
2023-05-06T11:44:44.000Z,6.8
2023-05-06T11:46:00.000Z,6.7
2023-05-06T11:47:17.468Z,7
2023-05-06T11:48:33.000Z,7.8
2023-05-06T11:49:49.000Z,6.3
2023-05-06T11:51:05.000Z,6.9
2023-05-06T11:52:21.000Z,6.3
2023-05-06T11:53:37.000Z,6
2023-05-06T11:54:53.000Z,6.4
2023-05-06T11:56:09.000Z,7.7
2023-05-06T11:57:26.000Z,6.9
2023-05-06T11:58:42.000Z,6.4
2023-05-06T11:59:58.000Z,6.6
2023-05-06T12:01:15.048Z,7.4
2023-05-06T12:02:31.000Z,6.5
2023-05-06T12:03:47.000Z,7
2023-05-06T12:05:03.000Z,7.1
2023-05-06T12:06:19.000Z,7.4
2023-05-06T12:07:35.000Z,6.8
2023-05-06T12:08:51.000Z,6.8
2023-05-06T12:10:07.000Z,6.9
2023-05-06T12:11:23.000Z,6.8
2023-05-06T12:12:39.000Z,7.1
2023-05-06T12:13:56.000Z,7.8
2023-05-06T12:15:12.000Z,7.4
2023-05-06T12:16:28.000Z,7.7
2023-05-06T12:17:44.000Z,6.1
2023-05-06T12:19:01.000Z,6.9
2023-05-06T12:20:17.000Z,6.5
2023-05-06T12:21:33.000Z,6.9
2023-05-06T12:22:50.014Z,5.8
2023-05-06T12:24:06.000Z,7.2
2023-05-06T12:25:21.000Z,6.6
2023-05-06T12:26:37.000Z,7.3
2023-05-06T12:27:53.000Z,6.7
2023-05-06T12:29:09.000Z,5.5
2023-05-06T12:30:26.000Z,6
2023-05-06T12:31:42.000Z,7.4
2023-05-06T12:32:58.000Z,6.7
2023-05-06T12:34:14.000Z,6.3
2023-05-06T12:35:31.000Z,7.1
2023-05-06T12:36:47.000Z,6.7
2023-05-06T12:38:03.000Z,6.1
2023-05-06T12:39:19.000Z,6.3
2023-05-06T12:40:36.000Z,5.6
2023-05-06T12:41:51.000Z,5.5
2023-05-06T12:43:07.000Z,6.1
2023-05-06T12:44:23.000Z,5.5
2023-05-06T12:45:40.000Z,6
2023-05-06T12:46:56.000Z,5.5
2023-05-06T12:49:28.000Z,5.4
2023-05-06T12:50:44.000Z,5
2023-05-06T12:52:01.000Z,5.4
2023-05-06T12:53:17.000Z,4.9
2023-05-06T12:54:33.000Z,4.9
2023-05-06T12:55:49.000Z,4.9
2023-05-06T12:57:06.000Z,5.8
2023-05-06T12:58:21.000Z,4.8
2023-05-06T12:59:37.827Z,5.4
2023-05-06T13:02:10.000Z,5
2023-05-06T13:03:26.000Z,5.7
2023-05-06T13:04:42.000Z,5.2
2023-05-06T13:05:57.000Z,4.6
2023-05-06T13:07:13.274Z,4.7
2023-05-06T13:08:29.000Z,4.8
2023-05-06T13:09:45.000Z,5.2
2023-05-06T13:11:00.000Z,5.1
2023-05-06T13:12:16.000Z,5.8
2023-05-06T13:13:32.000Z,5.3
2023-05-06T13:14:48.000Z,4.8
2023-05-06T13:16:04.000Z,6.2
2023-05-06T13:17:20.000Z,6.1
2023-05-06T13:18:37.399Z,5.8
2023-05-06T13:19:53.648Z,6
2023-05-06T13:21:09.000Z,6
2023-05-06T13:22:25.000Z,5
2023-05-06T13:23:42.000Z,5.8
2023-05-06T13:24:58.000Z,5
2023-05-06T13:27:31.056Z,4.6
2023-05-06T13:28:46.000Z,4.7
2023-05-06T13:30:02.000Z,4.3
2023-05-06T13:31:18.000Z,5.5
2023-05-06T13:32:35.007Z,5.2
2023-05-06T13:33:50.000Z,5.6
2023-05-06T13:35:07.000Z,5.3
2023-05-06T13:36:23.000Z,5.4
2023-05-06T13:37:39.000Z,5.6
2023-05-06T13:40:12.000Z,5.7
2023-05-06T13:41:28.000Z,5.7
2023-05-06T13:42:44.000Z,5.7
2023-05-06T13:44:00.000Z,5.6
2023-05-06T13:45:16.000Z,5.5
2023-05-06T13:46:32.000Z,5.2
2023-05-06T13:47:48.000Z,5.1
2023-05-06T13:49:04.000Z,5.5
2023-05-06T13:50:21.000Z,5.3
2023-05-06T13:51:36.000Z,4.9
2023-05-06T13:52:51.000Z,7.8
2023-05-06T13:54:07.000Z,5.2
2023-05-06T13:55:23.000Z,5
2023-05-06T13:56:40.000Z,5.2
2023-05-06T13:57:56.000Z,5.1
2023-05-06T13:59:12.000Z,5
2023-05-06T14:00:28.000Z,5.6
2023-05-06T14:01:45.000Z,5
2023-05-06T14:03:01.000Z,5.1
2023-05-06T14:04:17.883Z,5.6
2023-05-06T14:05:33.000Z,5.3
2023-05-06T14:06:49.000Z,5
2023-05-06T14:08:04.000Z,5.6
2023-05-06T14:09:20.000Z,6.1
2023-05-06T14:10:37.078Z,6.1
2023-05-06T14:11:53.000Z,5.4
2023-05-06T14:13:09.000Z,5.5
2023-05-06T14:14:25.000Z,5.3
2023-05-06T14:15:41.000Z,5.7
2023-05-06T14:16:58.255Z,5.3
2023-05-06T14:18:14.000Z,5.5
2023-05-06T14:19:30.000Z,5.5
2023-05-06T14:20:46.000Z,5
2023-05-06T14:22:02.000Z,5.6
2023-05-06T14:23:19.403Z,5
2023-05-06T14:24:34.000Z,5.4
2023-05-06T14:25:50.000Z,5.3
2023-05-06T14:27:06.000Z,5.4
2023-05-06T14:28:23.000Z,5.4
2023-05-06T14:29:39.608Z,6.8
2023-05-06T14:30:55.000Z,5.7
2023-05-06T14:32:11.000Z,5.1
2023-05-06T14:33:28.000Z,4.9
2023-05-06T14:34:44.000Z,5.4
2023-05-06T14:36:00.000Z,4.9
2023-05-06T14:37:16.000Z,5.8
2023-05-06T14:38:32.000Z,5
2023-05-06T14:39:49.000Z,5.1
2023-05-06T14:41:04.000Z,5.3
2023-05-06T14:42:20.928Z,5.1
2023-05-06T14:43:36.000Z,5.1
2023-05-06T14:44:53.000Z,4.6
2023-05-06T14:46:09.000Z,4.8
2023-05-06T14:47:25.000Z,4.7
2023-05-06T14:48:41.000Z,4.3
2023-05-06T14:49:58.352Z,4.8
2023-05-06T14:51:14.000Z,4.6
2023-05-06T14:52:30.821Z,4.4
2023-05-06T14:53:46.000Z,5
2023-05-06T14:56:19.000Z,5.1
2023-05-06T14:57:34.000Z,5.1
2023-05-06T14:58:50.000Z,4.8
2023-05-06T15:00:06.000Z,4.7
2023-05-06T15:01:23.000Z,5
2023-05-06T15:02:39.000Z,4.3
2023-05-06T15:03:55.000Z,4.4
2023-05-06T15:05:11.000Z,4
2023-05-06T15:06:28.000Z,4.3
2023-05-06T15:07:44.000Z,3.9
2023-05-06T15:09:00.000Z,4.6
2023-05-06T15:10:16.000Z,3.7
2023-05-06T15:11:33.000Z,3.8
2023-05-06T15:12:49.571Z,3.8
2023-05-06T15:14:04.000Z,4.6
2023-05-06T15:15:20.000Z,5
2023-05-06T15:16:37.000Z,3.7
2023-05-06T15:17:52.000Z,3.5
2023-05-06T15:19:08.773Z,3.7
2023-05-06T15:20:24.000Z,3.9
2023-05-06T15:21:40.000Z,3.6
2023-05-06T15:22:57.000Z,4.2
2023-05-06T15:24:13.000Z,3.7
2023-05-06T15:25:29.000Z,3.6
2023-05-06T15:26:45.000Z,4
2023-05-06T15:28:02.000Z,3.7
2023-05-06T15:29:18.000Z,3.4
2023-05-06T15:30:34.000Z,3.9
2023-05-06T15:31:50.000Z,3.6
2023-05-06T15:33:07.000Z,3.6
2023-05-06T15:34:22.551Z,3.6
2023-05-06T15:35:38.000Z,3.5
2023-05-06T15:36:54.000Z,4
2023-05-06T15:38:11.000Z,3.3
2023-05-06T15:39:27.000Z,3.5
2023-05-06T15:40:43.000Z,3.7
2023-05-06T15:41:59.000Z,3.5
2023-05-06T15:43:15.000Z,3.4
2023-05-06T15:44:32.000Z,3.7
2023-05-06T15:45:48.000Z,4
2023-05-06T15:47:04.000Z,3.7
2023-05-06T15:48:20.000Z,3.9
2023-05-06T15:49:37.000Z,3.3
2023-05-06T15:50:52.600Z,4
2023-05-06T15:52:08.000Z,3.8
2023-05-06T15:53:24.000Z,4.1
2023-05-06T15:54:41.000Z,3.4
2023-05-06T15:55:57.000Z,3.7
2023-05-06T15:57:13.000Z,4
2023-05-06T15:58:30.021Z,3.2
2023-05-06T15:59:46.000Z,4.4
2023-05-06T16:01:02.000Z,3.6
2023-05-06T16:02:18.000Z,3.7
2023-05-06T16:03:34.000Z,3.6
2023-05-06T16:04:50.000Z,3.5
2023-05-06T16:06:07.000Z,3.6
2023-05-06T16:07:22.000Z,3.5
2023-05-06T16:08:38.000Z,3.7
2023-05-06T16:09:54.000Z,3.2
2023-05-06T16:11:11.000Z,3.4
2023-05-06T16:12:27.000Z,3.6
2023-05-06T16:13:43.000Z,3.9
2023-05-06T16:14:59.000Z,3.6
2023-05-06T16:16:16.000Z,3.6
2023-05-06T16:17:32.000Z,3.6
2023-05-06T16:18:48.000Z,3.6
2023-05-06T16:20:04.997Z,3.7
2023-05-06T16:21:20.000Z,3.9
2023-05-06T16:22:37.450Z,3.8
2023-05-06T16:23:52.704Z,3.6
2023-05-06T16:25:08.000Z,4
2023-05-06T16:26:24.000Z,3.5
2023-05-06T16:27:41.000Z,4
2023-05-06T16:28:57.000Z,3.3
2023-05-06T16:30:13.000Z,3.5
2023-05-06T16:31:29.000Z,3.5
2023-05-06T16:32:46.000Z,3.2
2023-05-06T16:34:02.000Z,3.3
2023-05-06T16:35:18.000Z,3.3
2023-05-06T16:36:34.000Z,3.3
2023-05-06T16:37:51.000Z,3.3
2023-05-06T16:39:07.000Z,5.3
2023-05-06T16:40:22.000Z,3.3
2023-05-06T16:41:38.000Z,3.5
2023-05-06T16:42:54.000Z,3.6
2023-05-06T16:44:11.000Z,3.5
2023-05-06T16:45:27.000Z,3.5
2023-05-06T16:46:43.000Z,3.5
2023-05-06T16:47:59.000Z,3.2
2023-05-06T16:49:16.000Z,7.8
2023-05-06T16:50:32.000Z,3.2
2023-05-06T16:51:48.000Z,3.5
2023-05-06T16:53:04.000Z,3.3
2023-05-06T16:54:21.000Z,3
2023-05-06T16:55:37.000Z,2.9
2023-05-06T16:56:52.000Z,2.6
2023-05-06T16:58:08.000Z,3
2023-05-06T16:59:25.000Z,3.5
2023-05-06T17:00:41.000Z,3.8
2023-05-06T17:01:57.000Z,3.4
2023-05-06T17:03:13.000Z,3.1
2023-05-06T17:04:29.000Z,2.8
2023-05-06T17:05:46.432Z,3.1
2023-05-06T17:07:02.000Z,3.7
2023-05-06T17:08:18.000Z,3
2023-05-06T17:09:34.000Z,3
2023-05-06T17:10:51.000Z,3
2023-05-06T17:12:07.606Z,3.6
2023-05-06T17:13:22.000Z,3
2023-05-06T17:14:38.088Z,3.4
2023-05-06T17:15:54.000Z,2.9
2023-05-06T17:17:09.000Z,3.2
2023-05-06T17:18:24.000Z,3
2023-05-06T17:19:40.000Z,2.9
2023-05-06T17:20:57.000Z,3
2023-05-06T17:22:13.000Z,3
2023-05-06T17:23:29.000Z,3.3
2023-05-06T17:24:45.000Z,2.8
2023-05-06T17:26:01.000Z,3.3
2023-05-06T17:27:18.485Z,3.7
2023-05-06T17:28:34.000Z,4
2023-05-06T17:29:50.000Z,3.2
2023-05-06T17:31:06.000Z,3.2
2023-05-06T17:32:23.000Z,3.3
2023-05-06T17:33:39.000Z,2.8
2023-05-06T17:34:54.868Z,2.8
2023-05-06T17:36:10.000Z,2.7
2023-05-06T17:37:27.000Z,2.8
2023-05-06T17:38:43.000Z,2.9
2023-05-06T17:39:59.806Z,2.7
2023-05-06T17:41:16.063Z,2.6
2023-05-06T17:42:32.000Z,3
2023-05-06T17:43:48.000Z,2.9
2023-05-06T17:45:04.000Z,2.7
2023-05-06T17:46:20.000Z,3.2
2023-05-06T17:47:36.000Z,3.3
2023-05-06T17:48:53.000Z,2.9
2023-05-06T17:50:09.000Z,2.7
2023-05-06T17:51:24.000Z,2.9
2023-05-06T17:52:40.000Z,3.3
2023-05-06T17:53:57.000Z,3.2
2023-05-06T17:55:13.000Z,2.8